createdAt,value
2018-02-06T00:00:25.933Z,0
2018-02-06T00:01:21.586Z,0
2018-02-06T00:02:14.057Z,0
2018-02-06T00:03:05.814Z,0
2018-02-06T00:03:59.671Z,0
2018-02-06T00:04:52.700Z,0
2018-02-06T00:05:45.225Z,0
2018-02-06T00:06:42.111Z,0
2018-02-06T00:07:36.206Z,0
2018-02-06T00:08:30.273Z,0
2018-02-06T00:09:22.622Z,0
2018-02-06T00:10:17.577Z,0
2018-02-06T00:11:10.151Z,0
2018-02-06T00:12:02.159Z,0
2018-02-06T00:12:54.841Z,0
2018-02-06T00:15:20.217Z,0
2018-02-06T00:16:00.613Z,0
2018-02-06T00:16:41.007Z,0
2018-02-06T00:17:21.453Z,0
2018-02-06T00:18:01.836Z,0
2018-02-06T00:18:42.216Z,0
2018-02-06T00:19:22.626Z,0
2018-02-06T00:20:03.011Z,0
2018-02-06T00:20:43.419Z,0
2018-02-06T00:21:23.912Z,0
2018-02-06T00:23:57.729Z,0
2018-02-06T00:24:37.672Z,0
2018-02-06T00:25:18.604Z,0
2018-02-06T00:25:59.268Z,0
2018-02-06T00:26:39.650Z,0
2018-02-06T00:27:20.043Z,0
2018-02-06T00:28:00.467Z,0
2018-02-06T00:28:40.871Z,0
2018-02-06T00:31:21.106Z,0
2018-02-06T00:32:01.502Z,0
2018-02-06T00:32:41.909Z,0
2018-02-06T00:33:22.298Z,0
2018-02-06T00:34:02.715Z,0
2018-02-06T00:34:43.125Z,0
2018-02-06T00:35:23.546Z,0
2018-02-06T00:36:03.943Z,0
2018-02-06T00:36:44.373Z,0
2018-02-06T00:37:24.776Z,0
2018-02-06T00:38:05.168Z,0
2018-02-06T00:38:45.567Z,0
2018-02-06T00:39:25.974Z,0
2018-02-06T00:40:06.395Z,0
2018-02-06T00:40:46.768Z,0
2018-02-06T00:41:27.185Z,0
2018-02-06T00:42:07.522Z,0
2018-02-06T00:42:47.961Z,0
2018-02-06T00:43:28.299Z,0
2018-02-06T00:44:08.682Z,0
2018-02-06T00:44:49.079Z,0
2018-02-06T00:45:29.495Z,0
2018-02-06T00:46:09.956Z,0
2018-02-06T00:46:50.273Z,0
2018-02-06T00:49:32.228Z,0
2018-02-06T00:50:11.588Z,0
2018-02-06T00:50:52.064Z,0
2018-02-06T00:51:32.391Z,0
2018-02-06T00:52:12.750Z,0
2018-02-06T00:52:53.169Z,0
2018-02-06T00:53:33.541Z,0
2018-02-06T00:54:13.977Z,0
2018-02-06T00:54:54.346Z,0
2018-02-06T00:55:34.720Z,0
2018-02-06T00:56:15.122Z,0
2018-02-06T00:56:55.510Z,0
2018-02-06T00:57:35.918Z,0
2018-02-06T00:58:16.311Z,0
2018-02-06T00:58:56.735Z,0
2018-02-06T00:59:37.080Z,0
2018-02-06T01:00:17.469Z,0
2018-02-06T01:00:57.871Z,0
2018-02-06T01:01:38.278Z,0
2018-02-06T01:02:18.706Z,0
2018-02-06T01:02:59.083Z,0
2018-02-06T01:03:39.471Z,0
2018-02-06T01:04:19.868Z,0
2018-02-06T01:05:00.343Z,0
2018-02-06T01:05:40.724Z,0
2018-02-06T01:06:21.129Z,0
2018-02-06T01:07:01.521Z,0
2018-02-06T01:07:41.897Z,0
2018-02-06T01:08:22.280Z,0
2018-02-06T01:11:04.420Z,0
2018-02-06T01:11:44.513Z,0
2018-02-06T01:12:24.922Z,0
2018-02-06T01:13:05.372Z,0
2018-02-06T01:13:45.733Z,0
2018-02-06T01:14:26.129Z,0
2018-02-06T01:15:06.531Z,0
2018-02-06T01:15:46.933Z,0
2018-02-06T01:16:27.327Z,0
2018-02-06T01:17:07.712Z,0
2018-02-06T01:17:48.140Z,0
2018-02-06T01:18:28.561Z,0
2018-02-06T01:19:08.999Z,0
2018-02-06T01:19:49.298Z,0
2018-02-06T01:20:29.668Z,0
2018-02-06T01:21:10.092Z,0
2018-02-06T01:21:50.467Z,0
2018-02-06T01:22:30.893Z,0
2018-02-06T01:23:11.221Z,0
2018-02-06T01:23:51.667Z,0
2018-02-06T01:24:31.997Z,0
2018-02-06T01:25:12.397Z,0
2018-02-06T01:25:52.792Z,0
2018-02-06T01:26:33.193Z,0
2018-02-06T01:27:13.629Z,0
2018-02-06T01:27:54.045Z,0
2018-02-06T01:30:12.850Z,0
2018-02-06T01:30:53.241Z,0
2018-02-06T01:31:33.658Z,0
2018-02-06T01:32:14.054Z,0
2018-02-06T01:32:54.505Z,0
2018-02-06T01:33:34.878Z,0
2018-02-06T01:34:15.261Z,0
2018-02-06T01:34:55.686Z,0
2018-02-06T01:35:36.080Z,0
2018-02-06T01:36:16.463Z,0
2018-02-06T01:36:57.016Z,0
2018-02-06T01:37:37.330Z,0
2018-02-06T01:38:17.638Z,0
2018-02-06T01:38:58.011Z,0
2018-02-06T01:39:38.416Z,0
2018-02-06T01:42:00.694Z,0
2018-02-06T01:42:48.623Z,0
2018-02-06T01:43:27.917Z,0
2018-02-06T01:44:08.266Z,0
2018-02-06T01:44:48.663Z,0
2018-02-06T01:45:29.041Z,0
2018-02-06T01:46:09.442Z,0
2018-02-06T01:46:49.840Z,0
2018-02-06T01:47:30.285Z,0
2018-02-06T01:48:10.656Z,0
2018-02-06T01:48:51.024Z,0
2018-02-06T01:53:06.524Z,0
2018-02-06T01:53:46.960Z,0
2018-02-06T01:54:27.309Z,0
2018-02-06T01:55:07.666Z,0
2018-02-06T01:55:48.066Z,0
2018-02-06T01:56:28.462Z,0
2018-02-06T01:57:08.934Z,0
2018-02-06T01:57:49.355Z,0
2018-02-06T01:58:29.709Z,0
2018-02-06T01:59:10.143Z,0
2018-02-06T01:59:50.573Z,0
2018-02-06T02:00:30.931Z,0
2018-02-06T02:01:11.353Z,0
2018-02-06T02:01:51.772Z,0
2018-02-06T02:02:32.133Z,0
2018-02-06T02:03:12.592Z,0
2018-02-06T02:03:52.984Z,0
2018-02-06T02:04:33.348Z,0
2018-02-06T02:05:13.803Z,0
2018-02-06T02:05:54.161Z,0
2018-02-06T02:06:34.556Z,0
2018-02-06T02:07:14.924Z,0
2018-02-06T02:07:55.359Z,0
2018-02-06T02:08:35.702Z,0
2018-02-06T02:09:16.136Z,0
2018-02-06T02:09:56.555Z,0
2018-02-06T02:10:36.924Z,0
2018-02-06T02:11:17.357Z,0
2018-02-06T02:11:57.812Z,0
2018-02-06T02:12:38.238Z,0
2018-02-06T02:13:18.517Z,0
2018-02-06T02:13:58.966Z,0
2018-02-06T02:14:39.323Z,0
2018-02-06T02:15:19.733Z,0
2018-02-06T02:16:00.118Z,0
2018-02-06T02:16:40.521Z,0
2018-02-06T02:17:20.916Z,0
2018-02-06T02:18:01.309Z,0
2018-02-06T02:18:41.709Z,0
2018-02-06T02:19:22.143Z,0
2018-02-06T02:20:02.538Z,0
2018-02-06T02:20:42.895Z,0
2018-02-06T02:21:23.271Z,0
2018-02-06T02:22:03.655Z,0
2018-02-06T02:22:44.059Z,0
2018-02-06T02:23:24.438Z,0
2018-02-06T02:24:04.902Z,0
2018-02-06T02:24:45.281Z,0
2018-02-06T02:25:25.701Z,0
2018-02-06T02:26:06.081Z,0
2018-02-06T02:26:46.473Z,0
2018-02-06T02:27:26.854Z,0
2018-02-06T02:28:07.227Z,0
2018-02-06T02:28:47.599Z,0
2018-02-06T02:29:27.985Z,0
2018-02-06T02:30:08.375Z,0
2018-02-06T02:30:48.855Z,0
2018-02-06T02:31:29.249Z,0
2018-02-06T02:32:09.842Z,0
2018-02-06T02:32:50.021Z,0
2018-02-06T02:33:30.420Z,0
2018-02-06T02:34:10.816Z,0
2018-02-06T02:34:51.212Z,0
2018-02-06T02:35:31.637Z,0
2018-02-06T02:36:12.093Z,0
2018-02-06T02:36:52.433Z,0
2018-02-06T02:37:32.820Z,0
2018-02-06T02:38:13.217Z,0
2018-02-06T02:38:53.643Z,0
2018-02-06T02:39:33.999Z,0
2018-02-06T02:40:14.416Z,0
2018-02-06T02:40:54.819Z,0
2018-02-06T02:41:35.255Z,0
2018-02-06T04:42:24.599Z,0
2018-02-06T04:43:05.006Z,0
2018-02-06T04:43:45.442Z,0
2018-02-06T04:44:25.787Z,0
2018-02-06T04:45:06.160Z,0
2018-02-06T04:47:23.835Z,0
2018-02-06T04:48:04.229Z,0
2018-02-06T04:48:44.621Z,0
2018-02-06T04:49:25.076Z,0
2018-02-06T04:50:05.431Z,0
2018-02-06T04:50:45.807Z,0
2018-02-06T04:51:26.220Z,0
2018-02-06T04:52:06.609Z,0
2018-02-06T04:52:47.025Z,0
2018-02-06T04:53:27.376Z,0
2018-02-06T04:54:07.830Z,0
2018-02-06T04:54:48.200Z,0
2018-02-06T04:55:28.601Z,0
2018-02-06T04:56:09.017Z,0
2018-02-06T04:56:49.406Z,0
2018-02-06T04:57:29.837Z,0
2018-02-06T04:58:10.223Z,0
2018-02-06T04:58:50.618Z,0
2018-02-06T04:59:31.001Z,0
2018-02-06T05:00:11.362Z,0
2018-02-06T05:00:51.751Z,0
2018-02-06T05:01:32.152Z,0
2018-02-06T05:02:12.521Z,0
2018-02-06T05:02:52.974Z,0
2018-02-06T05:03:33.364Z,0
2018-02-06T05:04:13.763Z,0
2018-02-06T05:04:54.148Z,0
2018-02-06T05:05:34.528Z,0
2018-02-06T05:06:14.944Z,0
2018-02-06T05:06:55.325Z,0
2018-02-06T05:07:35.708Z,0
2018-02-06T05:08:16.150Z,0
2018-02-06T05:08:56.499Z,0
2018-02-06T05:09:36.949Z,0
2018-02-06T05:10:17.330Z,0
2018-02-06T05:12:35.205Z,0
2018-02-06T05:13:15.605Z,0
2018-02-06T05:13:56.032Z,0
2018-02-06T05:14:36.380Z,0
2018-02-06T05:15:16.739Z,0
2018-02-06T05:15:57.176Z,0
2018-02-06T05:16:37.512Z,0
2018-02-06T05:17:17.905Z,0
2018-02-06T05:19:35.554Z,0
2018-02-06T05:20:15.869Z,0
2018-02-06T05:20:56.222Z,0
2018-02-06T05:21:36.606Z,0
2018-02-06T05:22:16.959Z,0
2018-02-06T05:22:57.425Z,0
2018-02-06T05:23:37.785Z,0
2018-02-06T05:24:18.174Z,0
2018-02-06T05:24:58.548Z,0
2018-02-06T05:25:38.964Z,0
2018-02-06T05:26:19.367Z,0
2018-02-06T05:26:59.743Z,0
2018-02-06T05:27:40.143Z,0
2018-02-06T05:28:20.541Z,0
2018-02-06T05:29:00.899Z,0
2018-02-06T05:29:41.292Z,0
2018-02-06T05:30:21.682Z,0
2018-02-06T05:31:02.092Z,0
2018-02-06T05:31:42.492Z,0
2018-02-06T05:32:22.902Z,0
2018-02-06T05:33:03.303Z,0
2018-02-06T05:33:43.694Z,0
2018-02-06T05:34:24.108Z,0
2018-02-06T05:36:37.737Z,0
2018-02-06T05:37:17.753Z,0
2018-02-06T05:37:58.139Z,0
2018-02-06T05:38:38.533Z,0
2018-02-06T05:40:52.968Z,0
2018-02-06T05:41:33.430Z,0
2018-02-06T05:42:13.791Z,0
2018-02-06T05:42:54.193Z,0
2018-02-06T05:43:34.585Z,0
2018-02-06T05:44:14.978Z,0
2018-02-06T05:44:55.372Z,0
2018-02-06T05:45:35.750Z,0
2018-02-06T05:46:16.213Z,0
2018-02-06T05:46:56.710Z,0
2018-02-06T05:47:37.111Z,0
2018-02-06T05:48:17.627Z,0
2018-02-06T05:48:58.090Z,0
2018-02-06T05:49:38.495Z,0
2018-02-06T05:50:18.878Z,0
2018-02-06T05:50:59.308Z,0
2018-02-06T05:51:39.768Z,0
2018-02-06T05:54:07.405Z,0
2018-02-06T05:54:47.812Z,0
2018-02-06T05:57:15.621Z,0
2018-02-06T05:57:56.031Z,0
2018-02-06T05:58:36.432Z,0
2018-02-06T05:59:16.888Z,0
2018-02-06T05:59:57.286Z,0
2018-02-06T06:00:37.678Z,0
2018-02-06T06:01:18.078Z,0
2018-02-06T06:01:58.488Z,0
2018-02-06T06:02:38.872Z,0
2018-02-06T06:05:19.100Z,0
2018-02-06T06:05:59.514Z,0
2018-02-06T06:06:39.908Z,0
2018-02-06T06:07:20.330Z,0
2018-02-06T06:08:00.757Z,0
2018-02-06T06:08:41.160Z,0
2018-02-06T06:09:21.545Z,0
2018-02-06T06:10:01.945Z,0
2018-02-06T06:10:42.366Z,0
2018-02-06T06:11:22.752Z,0
2018-02-06T06:12:03.154Z,0
2018-02-06T06:12:43.540Z,0
2018-02-06T06:13:24.829Z,0
2018-02-06T06:14:05.190Z,0
2018-02-06T06:14:45.337Z,0
2018-02-06T06:15:25.804Z,0
2018-02-06T06:17:44.696Z,0
2018-02-06T06:18:25.301Z,0
2018-02-06T06:19:05.701Z,0
2018-02-06T06:19:46.103Z,0
2018-02-06T06:22:21.467Z,0
2018-02-06T06:23:01.292Z,0
2018-02-06T06:23:41.719Z,0
2018-02-06T06:24:22.028Z,0
2018-02-06T06:25:02.435Z,0
2018-02-06T06:25:42.844Z,0
2018-02-06T06:28:18.960Z,0
2018-02-06T06:28:59.292Z,0
2018-02-06T06:29:39.623Z,0
2018-02-06T06:30:20.019Z,0
2018-02-06T06:31:00.469Z,0
2018-02-06T06:31:40.867Z,0
2018-02-06T06:32:21.279Z,0
2018-02-06T06:33:01.675Z,0
2018-02-06T06:33:42.073Z,0
2018-02-06T06:34:22.457Z,0
2018-02-06T06:36:39.958Z,0
2018-02-06T06:37:18.265Z,0
2018-02-06T06:39:46.377Z,0
2018-02-06T06:40:26.739Z,0
2018-02-06T06:41:07.145Z,0
2018-02-06T06:41:47.521Z,0
2018-02-06T06:42:27.894Z,0
2018-02-06T06:43:08.267Z,0
2018-02-06T06:43:48.697Z,0
2018-02-06T06:44:30.686Z,0
2018-02-06T06:45:11.079Z,0
2018-02-06T06:45:51.497Z,0
2018-02-06T06:46:31.886Z,0
2018-02-06T06:47:12.367Z,0
2018-02-06T06:47:52.728Z,0
2018-02-06T06:48:33.156Z,0
2018-02-06T06:49:13.540Z,0
2018-02-06T06:49:54.033Z,0
2018-02-06T06:50:34.400Z,0
2018-02-06T06:51:15.160Z,0
2018-02-06T06:51:55.507Z,0
2018-02-06T06:52:35.941Z,0
2018-02-06T06:53:16.366Z,0
2018-02-06T06:53:56.774Z,0
2018-02-06T06:54:37.201Z,0
2018-02-06T06:55:17.691Z,0
2018-02-06T06:55:58.163Z,0
2018-02-06T06:56:38.536Z,0
2018-02-06T06:57:19.937Z,0
2018-02-06T06:57:59.566Z,0
2018-02-06T06:58:40.012Z,0
2018-02-06T06:59:20.361Z,0
2018-02-06T07:00:00.810Z,0
2018-02-06T07:00:41.224Z,0
2018-02-06T07:01:21.868Z,0
2018-02-06T07:02:02.329Z,0
2018-02-06T07:06:04.722Z,0
2018-02-06T07:06:43.152Z,0
2018-02-06T07:07:23.531Z,0
2018-02-06T07:11:18.683Z,0
2018-02-06T07:11:58.923Z,0
2018-02-06T07:14:38.447Z,0
2018-02-06T07:19:32.609Z,0
2018-02-06T07:20:13.056Z,0
2018-02-06T07:20:53.472Z,0
2018-02-06T07:21:33.946Z,0
2018-02-06T07:24:07.360Z,0
2018-02-06T07:24:47.751Z,0
2018-02-06T07:25:28.179Z,0
2018-02-06T07:26:08.578Z,0
2018-02-06T07:26:48.992Z,0
2018-02-06T07:27:29.396Z,0
2018-02-06T07:28:09.844Z,0
2018-02-06T07:28:50.260Z,0
2018-02-06T07:29:30.669Z,0
2018-02-06T07:30:11.035Z,0
2018-02-06T07:30:51.462Z,0
2018-02-06T07:31:31.867Z,0
2018-02-06T07:32:12.224Z,0
2018-02-06T07:32:52.679Z,0
2018-02-06T07:33:33.014Z,0
2018-02-06T07:34:13.528Z,0
2018-02-06T07:36:41.002Z,0
2018-02-06T07:37:35.232Z,0
2018-02-06T07:38:44.081Z,5
2018-02-06T07:41:03.799Z,5
2018-02-06T07:41:44.204Z,5
2018-02-06T07:42:24.831Z,5
2018-02-06T07:43:05.226Z,5
2018-02-06T07:43:45.639Z,5
2018-02-06T07:44:27.221Z,5
2018-02-06T07:45:07.554Z,5
2018-02-06T07:45:47.953Z,5
2018-02-06T07:48:04.666Z,5
2018-02-06T07:48:44.485Z,5
2018-02-06T07:49:24.906Z,5
2018-02-06T07:50:05.271Z,5
2018-02-06T07:50:45.720Z,5
2018-02-06T07:53:26.365Z,5
2018-02-06T07:54:06.753Z,5
2018-02-06T07:54:47.238Z,5
2018-02-06T07:55:27.709Z,5
2018-02-06T07:56:08.092Z,5
2018-02-06T07:56:48.509Z,5
2018-02-06T07:57:28.858Z,5
2018-02-06T08:00:07.488Z,5
2018-02-06T08:00:47.925Z,5
2018-02-06T08:01:28.302Z,5
2018-02-06T08:04:01.155Z,5
2018-02-06T08:04:41.586Z,5
2018-02-06T08:05:21.954Z,5
2018-02-06T08:06:02.323Z,5
2018-02-06T08:06:42.936Z,5
2018-02-06T08:07:23.609Z,5
2018-02-06T08:08:04.073Z,5
2018-02-06T08:08:44.657Z,5
2018-02-06T08:09:25.060Z,5
2018-02-06T08:10:05.542Z,5
2018-02-06T08:10:45.955Z,5
2018-02-06T08:11:26.448Z,5
2018-02-06T08:12:06.775Z,5
2018-02-06T08:14:40.360Z,5
2018-02-06T08:15:20.789Z,5
2018-02-06T08:16:01.247Z,5
2018-02-06T08:16:41.586Z,5
2018-02-06T08:17:21.999Z,5
2018-02-06T08:18:02.376Z,5
2018-02-06T08:18:42.861Z,5
2018-02-06T08:19:23.330Z,5
2018-02-06T08:20:03.728Z,5
2018-02-06T08:24:05.315Z,10
2018-02-06T08:24:45.345Z,10
2018-02-06T08:25:25.790Z,10
2018-02-06T08:26:06.165Z,10
2018-02-06T08:26:46.548Z,10
2018-02-06T08:27:26.976Z,10
2018-02-06T08:28:07.352Z,10
2018-02-06T08:28:48.045Z,10
2018-02-06T08:29:28.612Z,10
2018-02-06T08:30:09.825Z,10
2018-02-06T08:30:50.587Z,10
2018-02-06T08:31:31.152Z,10
2018-02-06T08:32:11.583Z,10
2018-02-06T08:32:52.003Z,10
2018-02-06T08:33:32.408Z,10
2018-02-06T08:34:12.891Z,10
2018-02-06T08:34:53.410Z,10
2018-02-06T08:35:33.857Z,10
2018-02-06T08:36:15.030Z,10
2018-02-06T08:36:54.724Z,10
2018-02-06T08:37:35.132Z,10
2018-02-06T08:40:29.336Z,10
2018-02-06T08:41:23.495Z,15
2018-02-06T08:42:18.575Z,15
2018-02-06T08:43:11.087Z,15
2018-02-06T08:45:38.102Z,20
2018-02-06T08:46:33.779Z,20
2018-02-06T08:47:26.963Z,20
2018-02-06T08:48:28.588Z,20
2018-02-06T08:49:21.717Z,20
2018-02-06T08:50:28.724Z,20
2018-02-06T08:56:33.064Z,25
2018-02-06T08:57:13.266Z,25
2018-02-06T08:57:53.765Z,25
2018-02-06T08:58:34.079Z,25
2018-02-06T09:02:15.451Z,35
2018-02-06T09:02:56.150Z,35
2018-02-06T09:03:36.716Z,35
2018-02-06T09:04:17.122Z,35
2018-02-06T09:04:57.574Z,35
2018-02-06T09:05:38.024Z,35
2018-02-06T09:06:18.449Z,35
2018-02-06T09:06:58.846Z,35
2018-02-06T09:07:39.358Z,35
2018-02-06T09:08:19.834Z,35
2018-02-06T09:09:00.189Z,35
2018-02-06T09:09:40.914Z,35
2018-02-06T09:10:21.256Z,40
2018-02-06T09:11:01.667Z,40
2018-02-06T09:11:42.047Z,40
2018-02-06T09:12:22.480Z,40
2018-02-06T09:13:02.960Z,40
2018-02-06T09:13:43.495Z,40
2018-02-06T09:14:23.780Z,40
2018-02-06T09:15:04.129Z,40
2018-02-06T09:15:44.669Z,40
2018-02-06T09:16:25.220Z,35
2018-02-06T09:17:05.549Z,35
2018-02-06T09:17:46.097Z,35
2018-02-06T09:18:26.531Z,35
2018-02-06T09:19:06.919Z,35
2018-02-06T09:19:47.430Z,40
2018-02-06T09:24:25.484Z,40
2018-02-06T09:25:05.794Z,40
2018-02-06T09:25:46.098Z,40
2018-02-06T09:26:26.495Z,40
2018-02-06T09:27:06.925Z,40
2018-02-06T09:27:47.323Z,40
2018-02-06T09:28:27.817Z,40
2018-02-06T09:29:08.261Z,40
2018-02-06T09:29:55.617Z,40
2018-02-06T09:30:36.340Z,40
2018-02-06T09:31:16.736Z,40
2018-02-06T09:31:56.947Z,40
2018-02-06T09:32:37.441Z,40
2018-02-06T09:33:17.867Z,40
2018-02-06T09:33:58.247Z,40
2018-02-06T09:34:38.739Z,40
2018-02-06T09:35:19.077Z,40
2018-02-06T09:35:59.553Z,40
2018-02-06T09:36:40.112Z,35
2018-02-06T09:37:20.455Z,40
2018-02-06T09:38:00.969Z,35
2018-02-06T09:38:41.302Z,35
2018-02-06T09:41:04.476Z,40
2018-02-06T09:41:44.929Z,40
2018-02-06T09:42:25.281Z,40
2018-02-06T09:43:05.744Z,40
2018-02-06T09:43:46.100Z,40
2018-02-06T09:44:26.676Z,35
2018-02-06T09:45:07.143Z,35
2018-02-06T09:45:47.538Z,35
2018-02-06T09:46:27.973Z,35
2018-02-06T09:47:08.314Z,35
2018-02-06T09:47:48.878Z,35
2018-02-06T09:48:29.113Z,35
2018-02-06T09:49:09.500Z,35
2018-02-06T09:49:50.090Z,35
2018-02-06T09:50:30.485Z,35
2018-02-06T09:51:10.856Z,35
2018-02-06T09:51:51.291Z,30
2018-02-06T09:52:31.853Z,30
2018-02-06T09:53:12.745Z,30
2018-02-06T09:53:53.184Z,30
2018-02-06T09:54:33.621Z,30
2018-02-06T09:55:14.091Z,30
2018-02-06T09:55:54.548Z,30
2018-02-06T09:56:35.052Z,25
2018-02-06T09:57:15.664Z,25
2018-02-06T09:57:56.182Z,25
2018-02-06T09:58:36.866Z,25
2018-02-06T09:59:17.302Z,25
2018-02-06T09:59:57.770Z,25
2018-02-06T10:00:38.200Z,25
2018-02-06T10:01:18.631Z,25
2018-02-06T10:01:59.949Z,25
2018-02-06T10:02:42.922Z,25
2018-02-06T10:03:22.101Z,25
2018-02-06T10:04:02.589Z,25
2018-02-06T10:04:43.085Z,25
2018-02-06T10:47:29.628Z,20
2018-02-06T10:49:51.320Z,20
2018-02-06T10:52:39.959Z,20
2018-02-06T10:53:19.050Z,20
2018-02-06T10:53:59.422Z,20
2018-02-06T10:54:39.865Z,20
2018-02-06T10:55:20.254Z,15
2018-02-06T10:56:00.702Z,15
2018-02-06T10:56:41.063Z,15
2018-02-06T10:57:21.507Z,15
2018-02-06T10:58:01.907Z,15
2018-02-06T10:58:42.263Z,15
2018-02-06T10:59:22.745Z,15
2018-02-06T11:00:03.206Z,15
2018-02-06T11:00:44.632Z,15
2018-02-06T11:01:25.062Z,15
2018-02-06T11:02:05.777Z,15
2018-02-06T11:02:46.715Z,15
2018-02-06T11:03:27.863Z,15
2018-02-06T11:04:08.587Z,15
2018-02-06T11:04:49.258Z,15
2018-02-06T11:05:29.617Z,15
2018-02-06T11:06:10.132Z,15
2018-02-06T11:06:50.618Z,15
2018-02-06T11:07:31.424Z,15
2018-02-06T11:08:11.974Z,15
2018-02-06T11:08:52.753Z,15
2018-02-06T11:09:33.202Z,15
2018-02-06T11:10:14.080Z,15
2018-02-06T11:10:54.312Z,15
2018-02-06T11:11:34.555Z,15
2018-02-06T11:12:14.983Z,15
2018-02-06T11:12:56.357Z,15
2018-02-06T11:13:36.493Z,15
2018-02-06T11:14:17.453Z,15
2018-02-06T11:14:58.116Z,15
2018-02-06T11:15:39.126Z,15
2018-02-06T11:16:20.046Z,15
2018-02-06T11:17:02.103Z,15
2018-02-06T11:17:42.498Z,15
2018-02-06T11:18:23.448Z,15
2018-02-06T11:19:03.995Z,20
2018-02-06T11:19:45.152Z,20
2018-02-06T11:20:25.850Z,20
2018-02-06T11:21:07.936Z,20
2018-02-06T11:21:47.072Z,20
2018-02-06T11:22:27.515Z,20
2018-02-06T11:23:08.685Z,20
2018-02-06T11:23:50.743Z,20
2018-02-06T11:24:29.878Z,20
2018-02-06T11:25:10.375Z,20
2018-02-06T11:25:50.973Z,20
2018-02-06T11:26:31.467Z,20
2018-02-06T11:27:12.348Z,20
2018-02-06T11:27:52.686Z,20
2018-02-06T11:28:35.250Z,20
2018-02-06T11:29:15.619Z,20
2018-02-06T11:29:56.338Z,20
2018-02-06T11:30:36.919Z,20
2018-02-06T11:31:17.441Z,20
2018-02-06T11:31:57.866Z,20
2018-02-06T11:32:38.494Z,15
2018-02-06T11:33:18.756Z,15
2018-02-06T11:33:59.189Z,15
2018-02-06T11:34:39.691Z,15
2018-02-06T11:35:20.196Z,15
2018-02-06T11:36:00.608Z,15
2018-02-06T11:36:41.077Z,15
2018-02-06T11:37:21.504Z,15
2018-02-06T11:38:01.926Z,15
2018-02-06T11:38:42.324Z,15
2018-02-06T11:39:22.727Z,15
2018-02-06T11:40:03.270Z,15
2018-02-06T11:40:43.885Z,15
2018-02-06T11:41:24.493Z,15
2018-02-06T11:42:04.811Z,15
2018-02-06T11:42:45.535Z,20
2018-02-06T11:43:25.977Z,20
2018-02-06T11:44:06.398Z,20
2018-02-06T11:44:47.190Z,20
2018-02-06T11:45:27.749Z,20
2018-02-06T11:46:08.334Z,20
2018-02-06T11:46:48.863Z,20
2018-02-06T11:47:29.527Z,20
2018-02-06T11:48:10.255Z,20
2018-02-06T11:48:50.950Z,20
2018-02-06T11:49:31.352Z,20
2018-02-06T11:50:12.239Z,20
2018-02-06T11:50:52.653Z,20
2018-02-06T11:51:33.285Z,20
2018-02-06T11:52:13.715Z,20
2018-02-06T11:52:54.104Z,20
2018-02-06T11:53:34.992Z,20
2018-02-06T11:54:15.607Z,20
2018-02-06T11:54:56.097Z,20
2018-02-06T11:55:36.582Z,20
2018-02-06T11:56:19.190Z,20
2018-02-06T11:56:58.959Z,20
2018-02-06T11:57:40.196Z,20
2018-02-06T11:58:20.813Z,20
2018-02-06T11:59:01.678Z,20
2018-02-06T11:59:41.573Z,20
2018-02-06T12:00:22.855Z,20
2018-02-06T12:01:03.028Z,20
2018-02-06T12:01:43.938Z,20
2018-02-06T12:02:24.687Z,20
2018-02-06T12:03:05.720Z,20
2018-02-06T12:03:46.379Z,20
2018-02-06T12:04:27.670Z,20
2018-02-06T12:05:07.917Z,20
2018-02-06T12:05:48.733Z,20
2018-02-06T12:06:30.180Z,20
2018-02-06T12:07:10.283Z,20
2018-02-06T12:07:51.071Z,15
2018-02-06T12:08:31.923Z,15
2018-02-06T12:09:12.588Z,15
2018-02-06T12:09:53.735Z,15
2018-02-06T12:10:33.958Z,15
2018-02-06T12:11:14.350Z,15
2018-02-06T12:11:54.824Z,15
2018-02-06T12:12:35.506Z,15
2018-02-06T12:13:16.725Z,10
2018-02-06T12:13:57.678Z,10
2018-02-06T12:14:38.671Z,10
2018-02-06T12:15:18.985Z,10
2018-02-06T12:15:59.498Z,10
2018-02-06T12:16:40.482Z,10
2018-02-06T12:17:20.885Z,10
2018-02-06T12:18:01.774Z,10
2018-02-06T12:18:42.461Z,10
2018-02-06T12:19:22.795Z,10
2018-02-06T12:20:03.240Z,10
2018-02-06T12:20:43.697Z,10
2018-02-06T12:21:24.145Z,10
2018-02-06T12:22:04.563Z,10
2018-02-06T12:22:45.577Z,10
2018-02-06T12:23:25.485Z,10
2018-02-06T12:24:06.314Z,10
2018-02-06T12:24:46.759Z,10
2018-02-06T12:25:27.296Z,10
2018-02-06T12:26:08.172Z,10
2018-02-06T12:26:48.208Z,10
2018-02-06T12:27:28.702Z,10
2018-02-06T12:28:09.145Z,10
2018-02-06T12:28:50.273Z,15
2018-02-06T12:29:31.652Z,15
2018-02-06T12:30:11.553Z,15
2018-02-06T12:32:40.579Z,15
2018-02-06T12:33:20.903Z,15
2018-02-06T12:34:01.467Z,15
2018-02-06T12:34:41.919Z,15
2018-02-06T12:35:22.394Z,15
2018-02-06T12:36:02.729Z,15
2018-02-06T12:36:43.300Z,15
2018-02-06T12:37:23.831Z,15
2018-02-06T12:38:04.704Z,15
2018-02-06T12:38:45.376Z,15
2018-02-06T12:39:25.876Z,15
2018-02-06T12:40:06.221Z,15
2018-02-06T12:40:46.753Z,15
2018-02-06T12:41:27.364Z,15
2018-02-06T12:44:00.926Z,15
2018-02-06T12:44:41.255Z,15
2018-02-06T12:45:21.734Z,15
2018-02-06T12:46:02.174Z,10
2018-02-06T12:46:42.549Z,10
2018-02-06T12:47:23.042Z,10
2018-02-06T12:48:03.414Z,10
2018-02-06T12:48:43.813Z,10
2018-02-06T12:49:24.229Z,10
2018-02-06T12:50:04.689Z,10
2018-02-06T12:52:36.461Z,10
2018-02-06T12:54:22.185Z,10
2018-02-06T12:55:02.644Z,10
2018-02-06T12:55:43.058Z,10
2018-02-06T12:56:24.364Z,10
2018-02-06T12:57:04.031Z,10
2018-02-06T12:57:44.407Z,10
2018-02-06T12:58:24.840Z,10
2018-02-06T12:59:05.235Z,10
2018-02-06T12:59:45.689Z,10
2018-02-06T13:00:26.108Z,10
2018-02-06T13:01:06.569Z,10
2018-02-06T13:01:46.963Z,10
2018-02-06T13:02:27.387Z,10
2018-02-06T13:03:07.797Z,10
2018-02-06T13:03:48.170Z,10
2018-02-06T13:04:28.586Z,10
2018-02-06T13:05:08.976Z,10
2018-02-06T13:05:49.348Z,10
2018-02-06T13:06:29.739Z,10
2018-02-06T13:07:10.237Z,10
2018-02-06T13:07:50.566Z,10
2018-02-06T13:08:30.928Z,10
2018-02-06T13:09:11.370Z,10
2018-02-06T13:11:44.531Z,15
2018-02-06T13:12:26.300Z,15
2018-02-06T13:13:06.784Z,15
2018-02-06T13:13:47.274Z,15
2018-02-06T13:14:27.606Z,15
2018-02-06T13:17:02.079Z,15
2018-02-06T13:17:42.355Z,15
2018-02-06T13:18:22.765Z,15
2018-02-06T13:19:03.196Z,15
2018-02-06T13:19:43.646Z,15
2018-02-06T13:20:24.075Z,15
2018-02-06T13:21:04.502Z,15
2018-02-06T13:21:44.919Z,15
2018-02-06T13:22:25.326Z,15
2018-02-06T13:23:05.870Z,15
2018-02-06T13:23:46.885Z,15
2018-02-06T13:24:27.242Z,15
2018-02-06T13:25:07.587Z,15
2018-02-06T13:25:48.106Z,15
2018-02-06T13:28:40.708Z,15
2018-02-06T13:29:34.466Z,15
2018-02-06T13:30:29.182Z,15
2018-02-06T13:31:22.961Z,15
2018-02-06T13:32:15.997Z,15
2018-02-06T13:33:10.509Z,15
2018-02-06T13:34:05.501Z,15
2018-02-06T13:34:57.936Z,15
2018-02-06T13:35:50.778Z,10
2018-02-06T13:36:45.941Z,10
2018-02-06T13:37:39.862Z,10
2018-02-06T13:38:34.585Z,10
2018-02-06T13:39:27.086Z,10
2018-02-06T13:40:08.485Z,10
2018-02-06T13:40:48.975Z,10
2018-02-06T13:41:29.872Z,10
2018-02-06T13:42:10.183Z,10
2018-02-06T13:42:50.778Z,10
2018-02-06T13:43:31.114Z,10
2018-02-06T13:44:11.549Z,10
2018-02-06T13:44:51.901Z,10
2018-02-06T13:45:32.402Z,10
2018-02-06T13:46:12.795Z,10
2018-02-06T13:46:54.569Z,10
2018-02-06T13:47:34.922Z,10
2018-02-06T13:48:15.429Z,10
2018-02-06T13:48:55.780Z,10
2018-02-06T13:49:36.139Z,10
2018-02-06T13:50:16.491Z,10
2018-02-06T13:50:57.222Z,10
2018-02-06T13:51:37.349Z,10
2018-02-06T13:52:17.786Z,10
2018-02-06T13:52:58.254Z,10
2018-02-06T13:53:38.711Z,10
2018-02-06T13:54:19.655Z,10
2018-02-06T13:55:00.352Z,10
2018-02-06T13:55:41.127Z,10
2018-02-06T13:56:21.635Z,10
2018-02-06T13:57:02.012Z,10
2018-02-06T13:57:42.353Z,10
2018-02-06T13:58:22.895Z,10
2018-02-06T13:59:03.263Z,10
2018-02-06T13:59:43.698Z,10
2018-02-06T14:00:24.294Z,10
2018-02-06T14:01:04.841Z,10
2018-02-06T14:01:45.315Z,10
2018-02-06T14:02:25.747Z,10
2018-02-06T14:03:06.095Z,10
2018-02-06T14:03:46.514Z,10
2018-02-06T14:04:26.951Z,10
2018-02-06T14:05:07.591Z,10
2018-02-06T14:05:48.606Z,10
2018-02-06T14:06:28.826Z,5
2018-02-06T14:07:09.664Z,5
2018-02-06T14:07:50.686Z,5
2018-02-06T14:08:32.222Z,5
2018-02-06T14:09:12.749Z,5
2018-02-06T14:09:53.145Z,5
2018-02-06T14:10:33.785Z,5
2018-02-06T14:11:14.302Z,10
2018-02-06T14:11:54.746Z,10
2018-02-06T14:12:35.231Z,10
2018-02-06T14:13:15.492Z,10
2018-02-06T14:13:56.577Z,10
2018-02-06T14:14:37.959Z,10
2018-02-06T14:15:18.716Z,10
2018-02-06T14:15:59.226Z,10
2018-02-06T14:16:40.569Z,10
2018-02-06T14:17:21.438Z,10
2018-02-06T14:18:02.075Z,10
2018-02-06T14:24:38.655Z,10
2018-02-06T14:25:19.781Z,10
2018-02-06T14:26:00.263Z,10
2018-02-06T14:26:40.411Z,10
2018-02-06T14:27:20.749Z,10
2018-02-06T14:28:01.155Z,10
2018-02-06T14:28:41.573Z,10
2018-02-06T14:29:22.001Z,10
2018-02-06T14:30:02.603Z,10